Time;durP1;ratioP1;P1;durP2;ratioP2;P2;SDS_P1;SDS_P2;PMS_P1;PMS_P2;Temp;Humidity;BMP_temperature;BMP_pressure;BME280_temperature;BME280_humidity;BME280_pressure;Samples;Min_cycle;Max_cycle;Signal;HPM_P1;HPM_P2
2024/04/01 00:01:40;;;;;;;32.80;9.20;;;;;;;16.14;55.79;101425.64;106883;1260;25380;-57
2024/04/01 00:04:08;;;;;;;33.70;9.60;;;;;;;16.14;55.79;101421.98;106716;1260;25383;-57
2024/04/01 00:06:35;;;;;;;25.90;7.60;;;;;;;16.13;55.74;101414.46;107134;1262;25382;-57
2024/04/01 00:09:02;;;;;;;35.80;9.30;;;;;;;16.13;55.73;101419.04;106790;1268;25355;-57
2024/04/01 00:11:29;;;;;;;31.90;8.50;;;;;;;16.12;55.63;101419.75;107116;1256;25351;-57
2024/04/01 00:13:56;;;;;;;28.00;7.60;;;;;;;16.12;55.59;101426.57;106865;1267;25419;-57
2024/04/01 00:16:23;;;;;;;25.30;8.40;;;;;;;16.11;55.55;101436.42;107140;1254;25351;-56
2024/04/01 00:18:50;;;;;;;31.90;8.00;;;;;;;16.11;55.57;101440.81;107008;1266;23313;-57
2024/04/01 00:21:17;;;;;;;27.60;9.30;;;;;;;16.11;55.60;101436.09;106928;1266;25351;-57
2024/04/01 00:23:46;;;;;;;31.30;8.40;;;;;;;16.11;55.62;101429.61;107065;1253;22530;-57
2024/04/01 00:26:13;;;;;;;41.40;11.10;;;;;;;16.11;55.50;101433.44;106711;1268;25351;-57
2024/04/01 00:28:40;;;;;;;33.20;10.00;;;;;;;16.11;55.41;101436.23;106840;1267;25418;-57
2024/04/01 00:31:07;;;;;;;24.30;8.60;;;;;;;16.11;55.42;101430.48;107164;1256;25354;-56
2024/04/01 00:33:34;;;;;;;27.10;8.50;;;;;;;16.11;55.47;101429.08;107173;1255;25428;-58
2024/04/01 00:36:01;;;;;;;39.00;11.30;;;;;;;16.11;55.43;101423.48;107055;1263;25352;-57
2024/04/01 00:38:28;;;;;;;29.80;8.40;;;;;;;16.10;55.46;101417.19;107066;1256;25453;-57
2024/04/01 00:40:55;;;;;;;33.80;10.10;;;;;;;16.11;55.53;101416.48;107031;1252;25562;-57
2024/04/01 00:43:22;;;;;;;28.50;8.70;;;;;;;16.10;55.56;101418.23;107047;1256;25363;-57
2024/04/01 00:45:49;;;;;;;31.50;9.00;;;;;;;16.10;55.56;101415.09;106780;1265;25484;-57
2024/04/01 00:48:16;;;;;;;30.60;8.70;;;;;;;16.10;55.44;101408.79;106914;1255;25370;-57
2024/04/01 00:50:46;;;;;;;42.40;9.70;;;;;;;16.07;55.32;101410.63;106878;1256;25398;-57
2024/04/01 00:53:13;;;;;;;35.90;10.70;;;;;;;16.04;55.37;101420.36;107211;1256;22888;-57
2024/04/01 00:55:41;;;;;;;32.70;9.20;;;;;;;16.02;55.46;101425.71;106829;1258;25344;-57
2024/04/01 00:58:08;;;;;;;29.30;9.50;;;;;;;16.01;55.58;101425.90;107084;1253;25501;-57
2024/04/01 01:00:35;;;;;;;29.30;8.80;;;;;;;16.02;55.55;101422.55;106801;1258;25369;-58
2024/04/01 01:03:02;;;;;;;34.60;9.30;;;;;;;16.01;55.60;101424.14;107085;1257;25379;-57
2024/04/01 01:05:30;;;;;;;37.20;9.30;;;;;;;16.01;55.62;101422.92;107148;1261;25355;-57
2024/04/01 01:07:57;;;;;;;28.30;10.00;;;;;;;16.02;55.61;101416.42;107027;1251;24222;-57
2024/04/01 01:10:24;;;;;;;34.80;9.70;;;;;;;16.02;55.66;101413.97;106741;1257;25501;-57
2024/04/01 01:12:51;;;;;;;41.20;11.00;;;;;;;16.01;55.62;101411.03;107097;1257;23696;-56
2024/04/01 01:15:18;;;;;;;40.30;9.30;;;;;;;16.01;55.60;101410.15;107025;1256;25501;-57
2024/04/01 01:17:45;;;;;;;29.00;9.80;;;;;;;16.00;55.56;101398.64;107099;1256;25362;-57
2024/04/01 01:20:12;;;;;;;32.10;9.30;;;;;;;15.99;55.59;101400.41;107115;1257;22551;-57
2024/04/01 01:22:40;;;;;;;34.30;9.90;;;;;;;15.98;55.64;101399.23;107124;1253;25354;-57
2024/04/01 01:25:08;;;;;;;31.40;10.10;;;;;;;15.97;55.77;101397.02;107121;1254;22530;-57
2024/04/01 01:27:39;;;;;;;29.40;9.50;;;;;;;15.95;55.88;101400.19;107071;1253;22670;-56
2024/04/01 01:30:15;;;;;;;39.80;10.10;;;;;;;15.93;56.02;101400.96;107121;1256;25432;-57
2024/04/01 01:32:45;;;;;;;39.70;11.10;;;;;;;15.92;56.06;101400.48;107018;1255;25354;-56
2024/04/01 01:35:14;;;;;;;32.00;10.60;;;;;;;15.91;56.07;101395.64;107081;1256;25361;-57
2024/04/01 01:37:40;;;;;;;34.40;9.60;;;;;;;15.90;56.17;101392.85;106786;1259;25382;-57
2024/04/01 01:40:11;;;;;;;29.60;10.10;;;;;;;15.90;56.36;101395.31;107101;1253;25355;-57
2024/04/01 01:42:38;;;;;;;34.30;10.40;;;;;;;15.90;56.35;101396.70;107037;1259;25383;-57
2024/04/01 01:45:06;;;;;;;36.60;10.60;;;;;;;15.92;56.33;101396.46;106751;1267;25380;-57
2024/04/01 01:47:34;;;;;;;36.10;11.20;;;;;;;15.93;56.32;101385.40;106938;1255;22523;-57
2024/04/01 01:50:03;;;;;;;26.40;8.80;;;;;;;15.94;56.24;101382.02;107281;1257;25312;-58
2024/04/01 01:52:30;;;;;;;28.50;8.50;;;;;;;15.96;56.34;101380.77;107088;1255;25380;-57
2024/04/01 01:54:57;;;;;;;27.10;8.30;;;;;;;15.97;56.36;101379.66;107048;1256;24357;-57
2024/04/01 01:57:25;;;;;;;26.50;9.50;;;;;;;15.99;56.38;101377.15;107177;1256;25501;-57
2024/04/01 01:59:51;;;;;;;22.60;8.30;;;;;;;16.00;56.29;101373.95;107007;1256;22530;-58
2024/04/01 02:02:18;;;;;;;25.80;7.50;;;;;;;16.01;56.30;101373.22;106304;1256;1003368;-57
2024/04/01 02:04:45;;;;;;;22.50;8.20;;;;;;;16.03;56.30;101376.48;107046;1256;25352;-57
2024/04/01 02:07:12;;;;;;;25.00;7.90;;;;;;;16.03;56.27;101372.82;107140;1259;25415;-57
2024/04/01 02:09:40;;;;;;;28.70;8.20;;;;;;;16.03;56.28;101375.77;107046;1251;25351;-57
2024/04/01 02:12:09;;;;;;;21.80;7.80;;;;;;;16.04;56.25;101369.28;106861;1259;24264;-57
2024/04/01 02:14:39;;;;;;;27.20;7.90;;;;;;;16.05;56.30;101369.26;107091;1258;25354;-57
2024/04/01 02:17:09;;;;;;;21.20;8.90;;;;;;;16.06;56.25;101370.96;107117;1257;25379;-57
2024/04/01 02:19:36;;;;;;;28.20;8.10;;;;;;;16.05;56.25;101371.48;107158;1258;25408;-58
2024/04/01 02:22:03;;;;;;;21.80;7.60;;;;;;;16.07;56.20;101370.20;107101;1256;25380;-57
2024/04/01 02:24:30;;;;;;;25.00;7.60;;;;;;;16.08;56.14;101368.23;107043;1257;25364;-57
2024/04/01 02:26:57;;;;;;;18.80;8.50;;;;;;;16.08;56.06;101370.86;106826;1257;25351;-57
2024/04/01 02:29:24;;;;;;;23.80;7.20;;;;;;;16.08;56.07;101371.06;106831;1261;25438;-58
2024/04/01 02:31:51;;;;;;;29.90;9.40;;;;;;;16.08;56.16;101368.26;107026;1262;22522;-57
2024/04/01 02:34:18;;;;;;;21.30;7.90;;;;;;;16.08;56.13;101369.30;106365;1266;1003027;-57
2024/04/01 02:36:45;;;;;;;22.20;8.80;;;;;;;16.08;56.13;101368.45;107144;1252;25379;-57
2024/04/01 02:39:16;;;;;;;25.10;8.70;;;;;;;16.07;56.10;101367.94;106788;1271;25502;-57
2024/04/01 02:41:47;;;;;;;31.40;9.10;;;;;;;16.07;56.14;101364.10;107073;1256;25366;-57
2024/04/01 02:44:14;;;;;;;26.60;9.00;;;;;;;16.07;56.16;101363.55;107069;1256;25348;-57
2024/04/01 02:46:41;;;;;;;23.30;8.60;;;;;;;16.07;56.18;101360.73;106827;1259;25386;-58
2024/04/01 02:49:11;;;;;;;22.80;8.50;;;;;;;16.08;56.14;101359.69;107147;1256;25389;-57
2024/04/01 02:51:38;;;;;;;27.90;9.50;;;;;;;16.07;56.13;101358.82;107064;1259;25380;-57
2024/04/01 02:54:06;;;;;;;27.00;8.20;;;;;;;16.08;56.10;101356.70;106991;1258;25375;-57
2024/04/01 02:56:33;;;;;;;26.70;8.40;;;;;;;16.07;56.06;101352.03;107160;1256;25373;-57
2024/04/01 02:59:04;;;;;;;32.10;10.10;;;;;;;16.06;56.10;101350.83;107014;1259;25364;-57
2024/04/01 03:01:31;;;;;;;30.50;10.10;;;;;;;16.06;56.04;101349.79;106898;1258;22544;-57
2024/04/01 03:04:01;;;;;;;24.30;8.70;;;;;;;16.05;56.02;101349.29;106756;1255;25373;-57
2024/04/01 03:06:28;;;;;;;26.70;9.00;;;;;;;16.01;56.06;101348.02;106761;1258;25349;-57
2024/04/01 03:08:56;;;;;;;26.90;9.60;;;;;;;16.02;56.15;101341.87;106704;1260;22536;-57
2024/04/01 03:11:23;;;;;;;27.80;8.80;;;;;;;16.02;56.15;101341.70;106835;1258;25495;-57
2024/04/01 03:13:50;;;;;;;24.20;9.00;;;;;;;16.01;56.14;101339.45;106960;1259;25357;-57
2024/04/01 03:16:20;;;;;;;27.50;10.30;;;;;;;16.01;56.19;101338.58;106825;1259;25432;-57
2024/04/01 03:18:47;;;;;;;23.50;7.80;;;;;;;16.01;56.05;101337.70;106909;1255;24262;-57
2024/04/01 03:21:15;;;;;;;28.20;9.00;;;;;;;16.00;56.19;101339.49;106791;1259;25348;-58
2024/04/01 03:23:43;;;;;;;20.50;8.60;;;;;;;16.00;56.22;101349.30;106349;1258;1003216;-57
2024/04/01 03:26:10;;;;;;;19.50;8.30;;;;;;;15.99;56.22;101348.61;106868;1267;25382;-57
2024/04/01 03:28:37;;;;;;;27.80;9.60;;;;;;;16.00;56.23;101352.64;106502;1266;25460;-57
2024/04/01 03:31:05;;;;;;;26.10;8.80;;;;;;;16.00;56.24;101350.34;106550;1261;24202;-57
2024/04/01 03:33:34;;;;;;;19.50;8.70;;;;;;;16.00;56.20;101349.80;106887;1258;25382;-57
2024/04/01 03:36:00;;;;;;;24.30;9.40;;;;;;;16.00;56.23;101357.52;107102;1258;22522;-57
2024/04/01 03:38:28;;;;;;;25.00;9.30;;;;;;;16.00;56.32;101358.40;106712;1267;25375;-57
2024/04/01 03:40:55;;;;;;;20.70;9.20;;;;;;;16.00;56.35;101354.38;107064;1251;25344;-58
2024/04/01 03:43:22;;;;;;;29.00;10.30;;;;;;;15.96;56.40;101356.59;106798;1258;25497;-57
2024/04/01 03:45:59;;;;;;;22.70;9.20;;;;;;;15.98;56.47;101357.94;107086;1259;25399;-57
2024/04/01 03:48:26;;;;;;;27.80;9.70;;;;;;;15.98;56.68;101362.48;106959;1258;22599;-58
2024/04/01 03:50:53;;;;;;;26.60;9.50;;;;;;;15.99;56.62;101359.64;107060;1265;25372;-57
2024/04/01 03:53:20;;;;;;;28.00;9.50;;;;;;;15.99;56.63;101358.59;107088;1257;25498;-57
2024/04/01 03:56:09;;;;;;;29.00;10.60;;;;;;;15.99;56.71;101357.37;106827;1271;22787;-57
2024/04/01 03:58:36;;;;;;;28.70;10.90;;;;;;;15.99;56.82;101358.95;106774;1259;25508;-57
2024/04/01 04:01:03;;;;;;;22.10;8.60;;;;;;;15.99;56.80;101360.87;106853;1265;25375;-57
2024/04/01 04:03:30;;;;;;;29.20;10.80;;;;;;;16.00;56.82;101368.91;106909;1259;25354;-58
2024/04/01 04:05:57;;;;;;;29.40;10.20;;;;;;;16.00;56.79;101369.75;106706;1265;24223;-57
2024/04/01 04:08:24;;;;;;;29.90;10.80;;;;;;;16.02;56.79;101364.11;106722;1259;25366;-57
2024/04/01 04:10:51;;;;;;;21.80;9.70;;;;;;;16.04;56.77;101372.07;106818;1259;25408;-57
2024/04/01 04:13:18;;;;;;;26.60;10.30;;;;;;;16.07;56.75;101371.61;106842;1259;25367;-58
2024/04/01 04:15:45;;;;;;;28.10;9.80;;;;;;;16.09;56.70;101380.29;107065;1256;25436;-57
2024/04/01 04:18:12;;;;;;;21.50;8.30;;;;;;;16.12;56.80;101380.55;107124;1256;25383;-57
2024/04/01 04:20:40;;;;;;;28.40;9.30;;;;;;;16.16;56.78;101385.50;107107;1255;22581;-57
2024/04/01 04:23:06;;;;;;;26.20;9.70;;;;;;;16.15;56.91;101383.23;106780;1256;25344;-57
2024/04/01 04:25:33;;;;;;;25.00;9.00;;;;;;;16.22;56.87;101380.00;106980;1259;25418;-57
2024/04/01 04:28:01;;;;;;;22.00;8.30;;;;;;;16.28;56.89;101377.19;106775;1259;25504;-57
2024/04/01 04:30:28;;;;;;;23.20;8.90;;;;;;;16.32;56.75;101378.96;107188;1258;25379;-57
2024/04/01 04:32:55;;;;;;;26.20;9.00;;;;;;;16.37;56.71;101377.94;106939;1258;25469;-57
2024/04/01 04:35:22;;;;;;;26.70;9.70;;;;;;;16.41;56.68;101382.35;107078;1258;25522;-57
2024/04/01 04:37:49;;;;;;;23.60;8.70;;;;;;;16.44;56.68;101376.45;106950;1257;25472;-57
2024/04/01 04:40:15;;;;;;;22.00;8.40;;;;;;;16.48;56.72;101374.04;107041;1263;25376;-57
2024/04/01 04:42:44;;;;;;;24.40;8.30;;;;;;;16.52;56.66;101374.42;106792;1259;25379;-57
2024/04/01 04:45:11;;;;;;;22.20;9.40;;;;;;;16.56;56.58;101373.60;107099;1259;25405;-57
2024/04/01 04:47:38;;;;;;;23.80;8.00;;;;;;;16.60;56.56;101373.77;107108;1265;22535;-58
2024/04/01 04:50:05;;;;;;;26.40;8.50;;;;;;;16.65;56.60;101373.58;107131;1253;23470;-58
2024/04/01 04:52:33;;;;;;;25.50;7.40;;;;;;;16.71;56.53;101379.87;107051;1264;22551;-57
2024/04/01 04:55:00;;;;;;;22.70;8.30;;;;;;;16.77;56.51;101378.59;107049;1253;25431;-57
2024/04/01 04:57:28;;;;;;;24.20;9.20;;;;;;;16.82;56.45;101378.02;107144;1258;25355;-57
2024/04/01 04:59:54;;;;;;;20.20;8.10;;;;;;;16.89;56.38;101380.58;106868;1261;25379;-57
2024/04/01 05:02:21;;;;;;;22.70;7.80;;;;;;;16.96;56.46;101379.61;107042;1257;25501;-58
2024/04/01 05:04:49;;;;;;;30.00;8.70;;;;;;;17.02;56.34;101380.08;107092;1259;25341;-57
2024/04/01 05:07:16;;;;;;;20.90;7.40;;;;;;;17.08;56.23;101378.77;107062;1256;25351;-57
2024/04/01 05:09:43;;;;;;;26.20;8.50;;;;;;;17.15;56.13;101379.02;107131;1256;25380;-57
2024/04/01 05:12:11;;;;;;;20.90;7.60;;;;;;;17.22;55.99;101383.31;107120;1254;24231;-57
2024/04/01 05:14:38;;;;;;;25.10;9.10;;;;;;;17.29;55.89;101385.48;106851;1260;25373;-57
2024/04/01 05:17:04;;;;;;;28.00;7.80;;;;;;;17.37;55.86;101385.72;106891;1260;25362;-57
2024/04/01 05:19:32;;;;;;;28.10;7.70;;;;;;;17.45;55.68;101380.63;107107;1259;25369;-57
2024/04/01 05:21:59;;;;;;;24.60;8.30;;;;;;;17.53;55.48;101373.49;107120;1256;25374;-57
2024/04/01 05:24:26;;;;;;;28.80;9.50;;;;;;;17.62;55.33;101371.91;106815;1272;25355;-57
2024/04/01 05:26:53;;;;;;;22.30;8.10;;;;;;;17.70;55.10;101370.00;106740;1260;25355;-58
2024/04/01 05:29:20;;;;;;;21.70;8.00;;;;;;;17.78;54.92;101373.33;106808;1259;25428;-57
2024/04/01 05:31:47;;;;;;;17.10;6.80;;;;;;;17.86;54.75;101376.83;107050;1266;25352;-57
2024/04/01 05:34:14;;;;;;;17.80;6.90;;;;;;;17.96;54.54;101380.84;106717;1259;25500;-59
2024/04/01 05:36:41;;;;;;;18.80;6.90;;;;;;;18.04;54.35;101377.71;107048;1256;22534;-57
2024/04/01 05:39:08;;;;;;;18.80;6.40;;;;;;;18.11;53.99;101380.02;106898;1257;25343;-57
2024/04/01 05:41:35;;;;;;;22.80;7.40;;;;;;;18.19;53.76;101378.78;106955;1258;25434;-57
2024/04/01 05:44:02;;;;;;;24.00;7.50;;;;;;;18.27;53.53;101378.96;106832;1261;25337;-57
2024/04/01 05:46:29;;;;;;;20.00;7.00;;;;;;;18.34;53.38;101377.23;106667;1261;25308;-57
2024/04/01 05:48:56;;;;;;;23.80;7.60;;;;;;;18.42;53.11;101377.60;106769;1260;25420;-57
2024/04/01 05:51:24;;;;;;;29.50;7.20;;;;;;;18.50;52.94;101375.15;106644;1259;25361;-57
2024/04/01 05:53:51;;;;;;;21.50;6.90;;;;;;;18.59;52.82;101373.33;106016;1261;1003491;-57
2024/04/01 05:56:18;;;;;;;19.40;6.70;;;;;;;18.71;52.91;101375.80;106550;1259;25370;-57
2024/04/01 05:58:45;;;;;;;20.50;6.80;;;;;;;18.87;52.76;101379.08;106490;1274;25447;-57
2024/04/01 06:01:12;;;;;;;16.20;6.30;;;;;;;19.05;52.39;101383.83;106720;1261;25537;-57
2024/04/01 06:03:39;;;;;;;20.10;6.20;;;;;;;19.25;51.90;101389.93;106697;1261;25400;-57
2024/04/01 06:06:07;;;;;;;24.70;7.10;;;;;;;19.37;51.73;101385.49;106704;1272;25380;-57
2024/04/01 06:08:34;;;;;;;15.90;6.10;;;;;;;19.61;51.27;101383.14;106512;1274;25501;-57
2024/04/01 06:11:01;;;;;;;16.50;6.60;;;;;;;19.91;50.26;101378.25;106368;1272;25508;-57
2024/04/01 06:13:28;;;;;;;19.20;6.10;;;;;;;20.18;49.68;101378.64;106711;1261;24388;-57
2024/04/01 06:15:56;;;;;;;18.10;5.60;;;;;;;20.50;48.99;101378.54;106655;1272;23372;-57
2024/04/01 06:18:23;;;;;;;21.70;6.10;;;;;;;20.84;48.24;101376.13;106952;1272;25408;-57
2024/04/01 06:20:51;;;;;;;15.10;6.10;;;;;;;21.13;47.60;101376.00;106982;1274;25380;-57
2024/04/01 06:23:18;;;;;;;19.30;6.30;;;;;;;21.41;47.11;101373.36;107190;1261;25379;-57
2024/04/01 06:25:46;;;;;;;16.10;6.10;;;;;;;21.68;46.28;101377.05;106722;1273;25509;-57
2024/04/01 06:28:13;;;;;;;16.10;5.20;;;;;;;21.89;45.86;101374.97;106956;1272;25547;-57
2024/04/01 06:30:41;;;;;;;13.80;6.10;;;;;;;22.06;45.14;101381.40;107020;1270;25354;-57
2024/04/01 06:33:08;;;;;;;15.80;5.60;;;;;;;22.21;44.94;101387.20;106800;1260;25379;-57
2024/04/01 06:35:35;;;;;;;17.70;5.60;;;;;;;22.35;44.30;101395.16;106757;1260;25501;-57
2024/04/01 06:38:05;;;;;;;16.80;5.70;;;;;;;22.45;43.98;101401.41;107087;1256;25958;-57
2024/04/01 06:40:36;;;;;;;18.40;5.70;;;;;;;22.50;43.66;101403.78;107107;1267;22992;-58
2024/04/01 06:43:03;;;;;;;18.50;5.50;;;;;;;22.51;43.57;101411.16;107045;1269;22531;-57
2024/04/01 06:45:30;;;;;;;15.60;5.70;;;;;;;22.49;43.38;101420.63;107092;1256;22597;-57
2024/04/01 06:47:57;;;;;;;15.40;5.90;;;;;;;22.47;43.20;101418.64;106991;1269;25367;-57
2024/04/01 06:50:25;;;;;;;21.60;6.40;;;;;;;22.43;43.21;101422.23;107069;1267;25351;-57
2024/04/01 06:52:52;;;;;;;17.30;5.40;;;;;;;22.42;43.35;101424.10;107143;1267;25541;-57
2024/04/01 06:55:19;;;;;;;17.90;6.60;;;;;;;22.44;43.62;101425.72;107043;1267;25301;-58
2024/04/01 06:57:46;;;;;;;15.30;5.30;;;;;;;22.51;43.58;101428.85;107140;1269;22671;-57
2024/04/01 07:00:15;;;;;;;14.60;5.00;;;;;;;22.60;43.30;101428.27;107100;1272;25408;-57
2024/04/01 07:02:42;;;;;;;17.00;5.50;;;;;;;22.72;43.01;101427.06;107181;1268;24302;-57
2024/04/01 07:05:09;;;;;;;16.20;5.90;;;;;;;22.83;42.80;101426.53;106969;1272;25337;-57
2024/04/01 07:07:35;;;;;;;18.40;5.20;;;;;;;22.94;42.46;101427.26;106804;1269;25432;-57
2024/04/01 07:10:03;;;;;;;12.40;4.80;;;;;;;23.01;42.04;101428.77;106787;1275;25415;-57
2024/04/01 07:12:31;;;;;;;15.90;5.40;;;;;;;23.05;42.13;101432.91;107139;1267;22534;-57
2024/04/01 07:14:58;;;;;;;27.10;5.80;;;;;;;23.09;41.89;101431.98;104132;1272;1003454;-57
2024/04/01 07:17:25;;;;;;;17.40;4.70;;;;;;;23.12;41.57;101430.20;107105;1269;25619;-57
2024/04/01 07:19:52;;;;;;;13.50;5.30;;;;;;;23.11;41.48;101427.06;107031;1272;25341;-57
2024/04/01 07:22:20;;;;;;;13.20;4.60;;;;;;;23.07;41.34;101422.53;107259;1267;25532;-57
2024/04/01 07:24:47;;;;;;;20.60;5.40;;;;;;;22.97;41.36;101423.88;106694;1275;25504;-57
2024/04/01 07:27:14;;;;;;;15.60;5.40;;;;;;;22.85;41.50;101418.83;106797;1269;22624;-57
2024/04/01 07:29:41;;;;;;;19.60;6.10;;;;;;;22.69;41.68;101414.70;107003;1270;25431;-57
2024/04/01 07:32:08;;;;;;;15.10;5.10;;;;;;;22.49;41.88;101408.77;107072;1267;25344;-57
2024/04/01 07:34:35;;;;;;;19.30;5.30;;;;;;;22.31;42.40;101402.15;106997;1272;22976;-57
2024/04/01 07:37:03;;;;;;;12.90;4.70;;;;;;;22.17;42.69;101400.34;106778;1273;25397;-57
2024/04/01 07:39:30;;;;;;;10.10;4.40;;;;;;;22.05;42.92;101401.55;106685;1271;25438;-57
2024/04/01 07:41:57;;;;;;;15.10;4.90;;;;;;;21.96;43.05;101405.84;106714;1268;25365;-57
2024/04/01 07:44:24;;;;;;;12.40;4.30;;;;;;;21.87;43.41;101404.94;107056;1272;25416;-57
2024/04/01 07:46:51;;;;;;;14.90;4.70;;;;;;;21.81;43.59;101406.88;107201;1259;25368;-57
2024/04/01 07:49:18;;;;;;;14.90;5.60;;;;;;;21.76;43.64;101404.36;107096;1261;25365;-56
2024/04/01 07:51:46;;;;;;;13.80;4.40;;;;;;;21.69;43.69;101403.31;107084;1268;25355;-57
2024/04/01 07:54:13;;;;;;;13.40;4.60;;;;;;;21.62;43.83;101407.10;106951;1273;25434;-57
2024/04/01 07:56:40;;;;;;;19.50;4.80;;;;;;;21.54;43.95;101408.45;107051;1269;25419;-57
2024/04/01 07:59:07;;;;;;;11.90;4.40;;;;;;;21.45;44.00;101407.70;107079;1268;25380;-57
2024/04/01 08:01:35;;;;;;;14.20;5.10;;;;;;;21.34;44.18;101406.58;106855;1272;22517;-57
2024/04/01 08:04:02;;;;;;;15.20;4.50;;;;;;;21.22;44.70;101408.14;107053;1269;25351;-57
2024/04/01 08:06:29;;;;;;;12.50;4.30;;;;;;;21.15;45.02;101402.16;106998;1268;25379;-57
2024/04/01 08:08:56;;;;;;;14.60;5.20;;;;;;;21.14;45.33;101404.89;107048;1269;25515;-57
2024/04/01 08:11:23;;;;;;;15.70;4.70;;;;;;;21.16;45.31;101409.18;107247;1269;25427;-57
2024/04/01 08:13:51;;;;;;;16.20;4.90;;;;;;;21.19;45.22;101414.48;107114;1267;25411;-57
2024/04/01 08:16:18;;;;;;;14.50;5.00;;;;;;;21.21;45.09;101410.85;107044;1274;25416;-57
2024/04/01 08:18:45;;;;;;;16.70;4.60;;;;;;;21.22;45.11;101412.23;106745;1267;25428;-57
2024/04/01 08:21:12;;;;;;;16.00;5.50;;;;;;;21.22;45.12;101409.54;107084;1270;25484;-57
2024/04/01 08:23:39;;;;;;;13.40;4.50;;;;;;;21.24;45.19;101410.30;106767;1270;25398;-57
2024/04/01 08:26:06;;;;;;;16.90;4.20;;;;;;;21.27;45.18;101412.12;106685;1275;25505;-56
2024/04/01 08:28:33;;;;;;;15.80;5.50;;;;;;;21.28;45.21;101406.41;107123;1270;25369;-56
2024/04/01 08:31:00;;;;;;;13.80;5.20;;;;;;;21.31;45.17;101410.14;107108;1269;25370;-56
2024/04/01 08:33:28;;;;;;;13.90;4.60;;;;;;;21.32;45.08;101411.27;107073;1269;25415;-56
2024/04/01 08:35:57;;;;;;;14.20;4.50;;;;;;;21.33;44.88;101409.80;106699;1271;25504;-56
2024/04/01 08:38:24;;;;;;;12.80;5.00;;;;;;;21.31;44.81;101407.98;106762;1275;25415;-57
2024/04/01 08:41:05;;;;;;;13.40;4.20;;;;;;;21.28;44.88;101409.21;107059;1266;25604;-56
2024/04/01 08:43:39;;;;;;;13.00;4.80;;;;;;;21.27;45.10;101410.17;107012;1274;25344;-56
2024/04/01 08:46:06;;;;;;;13.80;4.50;;;;;;;21.27;44.93;101416.53;106736;1274;25287;-56
2024/04/01 08:48:33;;;;;;;13.90;4.60;;;;;;;21.26;44.82;101408.82;106896;1267;25572;-56
2024/04/01 08:51:04;;;;;;;13.60;4.60;;;;;;;21.22;44.76;101411.13;106719;1269;25421;-56
2024/04/01 08:53:43;;;;;;;;;;;;;;;21.18;44.85;101411.35;107169;1269;25406;-56
2024/04/01 08:56:10;;;;;;;9.80;3.80;;;;;;;21.12;45.11;101407.27;107104;1270;22588;-56
2024/04/01 08:58:38;;;;;;;14.90;4.20;;;;;;;21.07;45.32;101403.85;106674;1274;25418;-57
2024/04/01 09:01:05;;;;;;;13.30;4.40;;;;;;;21.05;45.45;101402.52;107095;1267;22546;-56
2024/04/01 09:03:32;;;;;;;14.00;4.40;;;;;;;21.04;45.53;101393.78;106614;1268;25333;-56
2024/04/01 09:05:59;;;;;;;14.70;4.70;;;;;;;21.04;45.72;101394.10;106828;1268;22520;-57
2024/04/01 09:08:27;;;;;;;16.20;4.90;;;;;;;21.09;45.86;101390.36;106663;1273;24266;-56
2024/04/01 09:10:54;;;;;;;13.40;3.80;;;;;;;21.14;45.76;101386.72;107109;1266;25498;-57
2024/04/01 09:13:21;;;;;;;16.10;4.60;;;;;;;21.19;45.67;101381.13;107088;1267;25437;-57
2024/04/01 09:15:48;;;;;;;14.80;5.00;;;;;;;21.23;45.47;101371.53;107116;1271;25380;-58
2024/04/01 09:18:15;;;;;;;17.30;4.50;;;;;;;21.16;45.61;101374.96;107073;1271;25489;-57
2024/04/01 09:20:43;;;;;;;12.20;3.50;;;;;;;21.11;45.73;101366.92;107093;1272;25338;-57
2024/04/01 09:23:11;;;;;;;23.30;5.50;;;;;;;21.13;45.76;101374.27;106892;1271;22845;-57
2024/04/01 09:25:38;;;;;;;14.40;4.70;;;;;;;21.14;45.70;101376.48;107109;1267;25371;-57
2024/04/01 09:28:06;;;;;;;14.40;4.60;;;;;;;21.26;45.33;101369.95;107047;1270;25369;-56
2024/04/01 09:30:33;;;;;;;14.30;3.90;;;;;;;21.29;45.09;101366.26;107144;1270;25313;-56
2024/04/01 09:33:00;;;;;;;11.80;4.00;;;;;;;21.29;45.13;101364.71;106810;1274;24471;-57
2024/04/01 09:35:28;;;;;;;12.90;5.30;;;;;;;21.26;45.07;101367.49;106993;1273;25403;-57
2024/04/01 09:37:55;;;;;;;13.40;5.20;;;;;;;21.23;45.05;101374.21;107057;1271;25491;-57
2024/04/01 09:40:22;;;;;;;11.30;3.90;;;;;;;21.16;45.16;101379.34;106843;1271;25353;-57
2024/04/01 09:42:49;;;;;;;12.40;4.00;;;;;;;21.05;45.32;101376.97;107187;1272;25440;-57
2024/04/01 09:45:16;;;;;;;15.30;4.50;;;;;;;21.12;45.40;101373.79;107009;1269;25415;-57
2024/04/01 09:47:44;;;;;;;16.70;4.20;;;;;;;21.13;45.39;101372.29;107182;1267;25424;-57
2024/04/01 09:50:11;;;;;;;10.50;4.10;;;;;;;21.14;45.39;101373.67;106660;1267;25441;-57
2024/04/01 09:52:38;;;;;;;15.60;4.60;;;;;;;21.14;45.38;101373.49;106778;1271;25383;-58
2024/04/01 09:55:06;;;;;;;11.90;4.50;;;;;;;21.17;45.56;101371.36;106852;1267;25414;-57
2024/04/01 09:57:52;;;;;;;13.30;3.70;;;;;;;21.21;45.64;101365.48;107064;1268;25407;-57
2024/04/01 10:00:19;;;;;;;20.20;4.70;;;;;;;21.31;45.44;101360.36;107108;1267;25589;-57
2024/04/01 10:03:06;;;;;;;17.80;4.60;;;;;;;21.37;45.24;101362.83;107127;1271;25341;-57
2024/04/01 10:05:53;;;;;;;15.90;4.20;;;;;;;21.45;45.07;101359.89;106765;1270;25513;-57
2024/04/01 10:08:57;;;;;;;11.80;4.20;;;;;;;21.53;45.01;101360.31;106787;1267;25532;-56
2024/04/01 10:11:42;;;;;;;17.10;4.50;;;;;;;21.62;44.97;101362.59;107073;1271;25383;-57
2024/04/01 10:14:24;;;;;;;16.00;4.30;;;;;;;21.70;45.00;101361.77;107084;1268;25379;-57
2024/04/01 10:17:12;;;;;;;15.20;4.50;;;;;;;21.75;44.74;101361.09;107127;1269;25492;-57
2024/04/01 10:20:07;;;;;;;14.30;4.10;;;;;;;21.79;44.75;101366.19;107078;1272;25481;-57
2024/04/01 10:22:53;;;;;;;12.70;4.30;;;;;;;21.83;44.48;101367.02;107119;1267;25431;-57
2024/04/01 10:25:41;;;;;;;14.00;4.90;;;;;;;21.85;44.31;101367.95;106840;1273;25303;-57
2024/04/01 10:28:37;;;;;;;15.70;3.90;;;;;;;21.85;44.28;101365.82;107064;1267;25354;-57
2024/04/01 10:31:28;;;;;;;11.10;3.70;;;;;;;21.88;44.38;101365.52;107008;1271;25418;-57
2024/04/01 10:34:32;;;;;;;14.50;4.00;;;;;;;21.90;44.33;101364.31;106870;1272;24713;-57
2024/04/01 10:37:05;;;;;;;15.50;4.40;;;;;;;21.91;44.24;101356.16;107052;1267;25344;-57
2024/04/01 10:39:47;;;;;;;18.10;4.20;;;;;;;21.92;44.26;101359.25;107042;1267;25418;-57
2024/04/01 10:42:26;;;;;;;12.10;4.30;;;;;;;21.95;44.28;101353.39;107041;1267;25452;-57
2024/04/01 10:45:12;;;;;;;10.20;3.80;;;;;;;22.01;44.26;101350.93;107110;1267;25338;-57
2024/04/01 10:48:06;;;;;;;16.60;4.00;;;;;;;22.09;44.07;101350.27;107100;1263;25471;-57
2024/04/01 10:50:42;;;;;;;13.10;4.70;;;;;;;22.12;44.00;101349.77;107033;1272;25486;-57
2024/04/01 10:53:47;;;;;;;16.40;3.90;;;;;;;22.19;43.79;101349.86;106890;1268;25354;-57
2024/04/01 10:56:46;;;;;;;16.00;4.70;;;;;;;22.26;43.31;101351.52;106904;1267;252000;-57
2024/04/01 10:59:31;;;;;;;14.60;4.00;;;;;;;22.21;43.22;101350.76;106966;1267;25340;-57
2024/04/01 11:02:23;;;;;;;10.80;3.70;;;;;;;22.14;43.31;101348.54;107021;1267;25428;-57
2024/04/01 11:05:04;;;;;;;;;;;;;;;22.10;43.40;101353.42;106900;1271;25446;-57
2024/04/01 11:07:37;;;;;;;12.60;3.30;;;;;;;22.05;43.62;101353.16;107132;1270;25428;-57
2024/04/01 11:10:43;;;;;;;14.80;4.30;;;;;;;22.00;43.63;101349.04;107030;1274;25330;-57
2024/04/01 11:13:12;;;;;;;16.20;4.00;;;;;;;21.94;43.81;101345.88;106231;1280;22536;-58
2024/04/01 11:15:39;;;;;;;11.60;4.40;;;;;;;21.90;43.97;101343.52;106330;1282;22547;-57
2024/04/01 11:18:19;;;;;;;12.90;3.60;;;;;;;21.85;44.09;101335.14;106339;1279;22539;-57
2024/04/01 11:21:07;;;;;;;12.00;4.10;;;;;;;21.82;44.16;101327.72;106439;1277;25444;-58